»·PEaware :: N47406 KSBP-KSBA

N47406 :: KSBP-KSBA

FLIGHT INFORMATION

Flight Status: Arrived
Operator: Privately registered:
United States
More flights under this callsign
Pilot: Anonymous 8231 (8231)
Aircraft: CESSNA 172 SKYHAWK
(C172)
More flights by this aircraft type
Origin: KSBP San Luis Co Regl
United States
Destination: KSBA Santa Barbara Mun
United States
More flights between these airports :: More routes between these airports
Route: MQO GVO HABUT
File this flight plan on PilotEdge
Remarks:
Altitude:
(Current/Filed)
5,000ft
Speed:
(Current/Filed)
110kts
Departed: 05-Feb-20 04:28 PM
Arrived: 05-Feb-20 05:12 PM
Distance/Time
Traveled:
63nm/0:43
Distance/Time
To Go:
Arrived

Flight Plot

Page will automatically refresh every two minutes.


Map Options




Map Legend


Flown Route
Filed Route
Departure Airport
Arrival Airport
Navaid (VOR, NDB)
Fix

Horizontal Profiles

Position Reports

Time Latitude Longitude Heading Altitude Ground
Speed
05-Feb-20 16:11 35.238572 -120.639406 358 216ft 0kts
05-Feb-20 16:12 35.238572 -120.639406 358 216ft 0kts
05-Feb-20 16:13 35.238572 -120.639406 358 216ft 0kts
05-Feb-20 16:14 35.238572 -120.639406 358 216ft 0kts
05-Feb-20 16:15 35.238572 -120.639406 358 216ft 0kts
05-Feb-20 16:16 35.238572 -120.639406 358 216ft 0kts
05-Feb-20 16:17 35.238572 -120.639406 358 216ft 0kts
05-Feb-20 16:18 35.238572 -120.639406 358 216ft 0kts
05-Feb-20 16:19 35.238572 -120.639406 358 216ft 0kts
05-Feb-20 16:20 35.238572 -120.639406 358 216ft 0kts
05-Feb-20 16:21 35.238572 -120.639406 358 216ft 0kts
05-Feb-20 16:22 35.238480 -120.639621 215 216ft 0kts
05-Feb-20 16:23 35.238480 -120.639621 215 216ft 0kts
05-Feb-20 16:24 35.236863 -120.638266 122 216ft 19kts
05-Feb-20 16:25 35.233358 -120.632304 176 216ft 1kts
05-Feb-20 16:26 35.233356 -120.632304 176 216ft 0kts
05-Feb-20 16:27 35.236499 -120.639599 305 342ft 80kts
05-Feb-20 16:28 35.247466 -120.662941 299 1453ft 80kts
05-Feb-20 16:29 35.257939 -120.687161 297 2477ft 81kts
05-Feb-20 16:30 35.268963 -120.711627 301 3432ft 83kts
05-Feb-20 16:31 35.261107 -120.724979 153 4276ft 87kts
05-Feb-20 16:32 35.239943 -120.711567 142 5031ft 98kts
05-Feb-20 16:33 35.214014 -120.687379 141 5040ft 118kts
05-Feb-20 16:34 35.188212 -120.664009 143 5017ft 115kts
05-Feb-20 16:35 35.160219 -120.640742 145 5016ft 124kts
05-Feb-20 16:36 35.131753 -120.616458 144 5015ft 125kts
05-Feb-20 16:37 35.103302 -120.591536 143 5000ft 125kts
05-Feb-20 16:38 35.075191 -120.566783 143 5000ft 125kts
05-Feb-20 16:39 35.046905 -120.541864 143 5000ft 125kts
05-Feb-20 16:40 35.018760 -120.517085 143 5000ft 125kts
05-Feb-20 16:41 34.990463 -120.492191 143 5000ft 124kts
05-Feb-20 16:42 34.963161 -120.468214 143 5000ft 119kts
05-Feb-20 16:43 34.936246 -120.444575 143 5000ft 119kts
05-Feb-20 16:44 34.909390 -120.420996 143 5000ft 119kts
05-Feb-20 16:45 34.884141 -120.398848 143 5000ft 119kts
05-Feb-20 16:46 34.857058 -120.375445 144 5000ft 119kts
05-Feb-20 16:47 34.829920 -120.352285 144 5000ft 119kts
05-Feb-20 16:48 34.802867 -120.329044 144 5000ft 119kts
05-Feb-20 16:49 34.775832 -120.305760 144 5000ft 119kts
05-Feb-20 16:50 34.748740 -120.282425 144 5000ft 119kts
05-Feb-20 16:51 34.719649 -120.257299 144 4542ft 133kts
05-Feb-20 16:52 34.691140 -120.232736 144 4424ft 117kts
05-Feb-20 16:53 34.664377 -120.209840 144 4444ft 120kts
05-Feb-20 16:54 34.636953 -120.186353 144 4444ft 120kts
05-Feb-20 16:55 34.609428 -120.163078 153 4457ft 119kts
05-Feb-20 16:56 34.577826 -120.150019 163 4472ft 120kts
05-Feb-20 16:57 34.545941 -120.137664 162 4472ft 120kts
05-Feb-20 16:58 34.514052 -120.125109 162 4472ft 120kts
05-Feb-20 16:59 34.482048 -120.112494 161 4439ft 123kts
05-Feb-20 17:00 34.447209 -120.098808 162 3875ft 139kts
05-Feb-20 17:01 34.413705 -120.079706 107 2735ft 126kts
05-Feb-20 17:02 34.416637 -120.042824 76 2140ft 104kts
05-Feb-20 17:03 34.422570 -120.009951 81 1866ft 94kts
05-Feb-20 17:04 34.423810 -119.975817 88 1964ft 102kts
05-Feb-20 17:05 34.424739 -119.940435 90 1557ft 101kts
05-Feb-20 17:06 34.424247 -119.906339 94 1116ft 100kts
05-Feb-20 17:07 34.422209 -119.873636 94 1080ft 101kts
05-Feb-20 17:08 34.421167 -119.838013 94 1210ft 93kts
05-Feb-20 17:09 34.418472 -119.809671 75 954ft 80kts
05-Feb-20 17:10 34.428198 -119.818504 267 269ft 70kts
05-Feb-20 17:11 34.427810 -119.838091 255 13ft 10kts
05-Feb-20 17:12 34.425253 -119.837904 162 12ft 33kts

Navigation Log

Ident Type
Flight plan parsing failed, navigation log unavailable